DTGRO EDMO-EDDN
Flight info
| Callsign | DTGRO |
|---|---|
| Flight time | N/A |
| Altitude | 3000 |
| Route | LOCAL VFR |
| Aircraft | C172/L-SFG/C |
Departure
| Time | 2026-04-18 12:23 |
|---|---|
| Airport | Oberpfaffenhofen Airport (EDMO) |
Arrival
| Time | N/A |
|---|---|
| Airport | Nuremberg Airport (EDDN) |
| Time | Latitude | Longitude | Altitude | Speed | Heading |
|---|---|---|---|---|---|
| 2026-04-18 12:07 | 48.08339 | 11.28038 | 1922 ft | 0 kts | 312° |
| 2026-04-18 12:16 | 48.08344 | 11.28035 | 1922 ft | 3 kts | 355° |
| 2026-04-18 12:17 | 48.08354 | 11.28057 | 1921 ft | 0 kts | 102° |
| 2026-04-18 12:17 | 48.08353 | 11.28080 | 1921 ft | 6 kts | 84° |
| 2026-04-18 12:17 | 48.08370 | 11.28139 | 1920 ft | 6 kts | 47° |
| 2026-04-18 12:17 | 48.08401 | 11.28183 | 1919 ft | 6 kts | 43° |
| 2026-04-18 12:18 | 48.08441 | 11.28238 | 1917 ft | 10 kts | 42° |
| 2026-04-18 12:18 | 48.08502 | 11.28320 | 1910 ft | 13 kts | 40° |
| 2026-04-18 12:18 | 48.08567 | 11.28408 | 1913 ft | 12 kts | 45° |
| 2026-04-18 12:18 | 48.08629 | 11.28493 | 1910 ft | 12 kts | 42° |
| 2026-04-18 12:19 | 48.08687 | 11.28574 | 1908 ft | 11 kts | 42° |
| 2026-04-18 12:19 | 48.08744 | 11.28649 | 1906 ft | 11 kts | 46° |
| 2026-04-18 12:19 | 48.08797 | 11.28722 | 1902 ft | 10 kts | 42° |
| 2026-04-18 12:19 | 48.08837 | 11.28786 | 1903 ft | 7 kts | 46° |
| 2026-04-18 12:20 | 48.08858 | 11.28844 | 1901 ft | 6 kts | 77° |
| 2026-04-18 12:20 | 48.08860 | 11.28895 | 1901 ft | 5 kts | 85° |
| 2026-04-18 12:20 | 48.08863 | 11.28943 | 1900 ft | 5 kts | 85° |
| 2026-04-18 12:20 | 48.08864 | 11.28981 | 1900 ft | 3 kts | 88° |
| 2026-04-18 12:21 | 48.08865 | 11.29015 | 1899 ft | 3 kts | 89° |
| 2026-04-18 12:21 | 48.08865 | 11.29049 | 1899 ft | 5 kts | 89° |
| 2026-04-18 12:21 | 48.08865 | 11.29132 | 1898 ft | 9 kts | 91° |
| 2026-04-18 12:21 | 48.08855 | 11.29220 | 1896 ft | 8 kts | 111° |
| 2026-04-18 12:22 | 48.08821 | 11.29246 | 1890 ft | 5 kts | 223° |
| 2026-04-18 12:22 | 48.08740 | 11.29127 | 1899 ft | 37 kts | 222° |
| 2026-04-18 12:22 | 48.08462 | 11.28720 | 1905 ft | 73 kts | 229° |
| 2026-04-18 12:22 | 48.08033 | 11.28187 | 2034 ft | 86 kts | 220° |
| 2026-04-18 12:23 | 48.07536 | 11.27639 | 2213 ft | 90 kts | 219° |
| 2026-04-18 12:23 | 48.07046 | 11.27057 | 2405 ft | 94 kts | 221° |
| 2026-04-18 12:23 | 48.06513 | 11.26413 | 2601 ft | 102 kts | 212° |
| 2026-04-18 12:23 | 48.05923 | 11.26777 | 2479 ft | 120 kts | 116° |
| 2026-04-18 12:24 | 48.05541 | 11.27822 | 2688 ft | 115 kts | 117° |
| 2026-04-18 12:24 | 48.05255 | 11.28860 | 2837 ft | 111 kts | 108° |
| 2026-04-18 12:24 | 48.05072 | 11.29981 | 2901 ft | 110 kts | 90° |
| 2026-04-18 12:24 | 48.05083 | 11.31111 | 3004 ft | 107 kts | 87° |
| 2026-04-18 12:25 | 48.05097 | 11.32248 | 3002 ft | 111 kts | 84° |
| 2026-04-18 12:25 | 48.05226 | 11.33308 | 3102 ft | 107 kts | 72° |
| 2026-04-18 12:25 | 48.05269 | 11.34450 | 2975 ft | 112 kts | 103° |
| 2026-04-18 12:25 | 48.04991 | 11.35509 | 2933 ft | 111 kts | 118° |
| 2026-04-18 12:26 | 48.04618 | 11.36508 | 2941 ft | 109 kts | 117° |
| 2026-04-18 12:26 | 48.04273 | 11.37516 | 2971 ft | 110 kts | 116° |
| 2026-04-18 12:26 | 48.03914 | 11.38550 | 2963 ft | 113 kts | 117° |
| 2026-04-18 12:26 | 48.03516 | 11.39561 | 2996 ft | 112 kts | 121° |
| 2026-04-18 12:27 | 48.03115 | 11.40581 | 2975 ft | 116 kts | 118° |
| 2026-04-18 12:27 | 48.02744 | 11.41644 | 3008 ft | 115 kts | 114° |
| 2026-04-18 12:27 | 48.02442 | 11.42740 | 3016 ft | 118 kts | 110° |
| 2026-04-18 12:27 | 48.02240 | 11.43892 | 3077 ft | 114 kts | 99° |
| 2026-04-18 12:28 | 48.02200 | 11.45088 | 3057 ft | 116 kts | 88° |
| 2026-04-18 12:28 | 48.02275 | 11.46265 | 3087 ft | 114 kts | 78° |
| 2026-04-18 12:28 | 48.02443 | 11.47429 | 3095 ft | 115 kts | 76° |
| 2026-04-18 12:28 | 48.02673 | 11.48558 | 3175 ft | 112 kts | 66° |
| 2026-04-18 12:29 | 48.03043 | 11.49603 | 3202 ft | 116 kts | 53° |
| 2026-04-18 12:29 | 48.03646 | 11.50368 | 3226 ft | 113 kts | 32° |
| 2026-04-18 12:29 | 48.04338 | 11.50959 | 3246 ft | 118 kts | 27° |
| 2026-04-18 12:29 | 48.05087 | 11.51510 | 3188 ft | 121 kts | 25° |
| 2026-04-18 12:30 | 48.05864 | 11.52020 | 3160 ft | 121 kts | 21° |
| 2026-04-18 12:30 | 48.06665 | 11.52419 | 3077 ft | 124 kts | 17° |
| 2026-04-18 12:30 | 48.07489 | 11.52751 | 3044 ft | 120 kts | 13° |
| 2026-04-18 12:30 | 48.08309 | 11.52992 | 2993 ft | 122 kts | 11° |
| 2026-04-18 12:31 | 48.09128 | 11.53232 | 2977 ft | 118 kts | 15° |
| 2026-04-18 12:31 | 48.09869 | 11.53755 | 2978 ft | 118 kts | 33° |
| 2026-04-18 12:31 | 48.10534 | 11.54471 | 3000 ft | 117 kts | 37° |
| 2026-04-18 12:31 | 48.11115 | 11.55348 | 2952 ft | 122 kts | 56° |
| 2026-04-18 12:32 | 48.11571 | 11.56377 | 2982 ft | 117 kts | 53° |
| 2026-04-18 12:32 | 48.11987 | 11.57414 | 2967 ft | 117 kts | 70° |
| 2026-04-18 12:32 | 48.12185 | 11.58571 | 2987 ft | 114 kts | 79° |
| 2026-04-18 12:32 | 48.12272 | 11.59789 | 2928 ft | 118 kts | 89° |
| 2026-04-18 12:33 | 48.12268 | 11.61018 | 2867 ft | 121 kts | 90° |
| 2026-04-18 12:33 | 48.12321 | 11.62212 | 2981 ft | 109 kts | 80° |
| 2026-04-18 12:33 | 48.12499 | 11.63332 | 2967 ft | 112 kts | 72° |
| 2026-04-18 12:33 | 48.12887 | 11.64312 | 2968 ft | 113 kts | 33° |
| 2026-04-18 12:34 | 48.13636 | 11.64615 | 2986 ft | 111 kts | 11° |
| 2026-04-18 12:34 | 48.14413 | 11.64701 | 2968 ft | 112 kts | 358° |
| 2026-04-18 12:34 | 48.15186 | 11.64554 | 2974 ft | 113 kts | 351° |
| 2026-04-18 12:34 | 48.15955 | 11.64306 | 2968 ft | 113 kts | 342° |
| 2026-04-18 12:35 | 48.16665 | 11.63831 | 2966 ft | 111 kts | 341° |
| 2026-04-18 12:35 | 48.17425 | 11.63546 | 2983 ft | 112 kts | 346° |
| 2026-04-18 12:35 | 48.18101 | 11.62990 | 2961 ft | 118 kts | 304° |
| 2026-04-18 12:35 | 48.18079 | 11.61825 | 2926 ft | 118 kts | 242° |
| 2026-04-18 12:36 | 48.17595 | 11.60909 | 2965 ft | 114 kts | 229° |
| 2026-04-18 12:36 | 48.17008 | 11.60063 | 2964 ft | 115 kts | 220° |
| 2026-04-18 12:36 | 48.16346 | 11.59404 | 2985 ft | 113 kts | 210° |
| 2026-04-18 12:36 | 48.15608 | 11.58945 | 2977 ft | 116 kts | 197° |
| 2026-04-18 12:37 | 48.14900 | 11.58431 | 2926 ft | 119 kts | 225° |
| 2026-04-18 12:37 | 48.14336 | 11.57578 | 2979 ft | 115 kts | 225° |
| 2026-04-18 12:37 | 48.13725 | 11.56827 | 3003 ft | 114 kts | 213° |
| 2026-04-18 12:37 | 48.13020 | 11.56231 | 2996 ft | 115 kts | 205° |
| 2026-04-18 12:38 | 48.12286 | 11.55747 | 2960 ft | 117 kts | 220° |
| 2026-04-18 12:38 | 48.11984 | 11.54684 | 3013 ft | 110 kts | 263° |
| 2026-04-18 12:38 | 48.11847 | 11.53531 | 2993 ft | 114 kts | 258° |
| 2026-04-18 12:38 | 48.11544 | 11.52470 | 3102 ft | 105 kts | 239° |
| 2026-04-18 12:39 | 48.10927 | 11.51889 | 3063 ft | 115 kts | 186° |
| 2026-04-18 12:39 | 48.10265 | 11.52429 | 3029 ft | 117 kts | 115° |
| 2026-04-18 12:39 | 48.09984 | 11.53461 | 3211 ft | 102 kts | 96° |
| 2026-04-18 12:39 | 48.10295 | 11.54474 | 3098 ft | 115 kts | 36° |
| 2026-04-18 12:40 | 48.11013 | 11.54921 | 3117 ft | 113 kts | 13° |
| 2026-04-18 12:40 | 48.11802 | 11.55009 | 3135 ft | 112 kts | 359° |
| 2026-04-18 12:40 | 48.12573 | 11.54870 | 3150 ft | 113 kts | 348° |
| 2026-04-18 12:40 | 48.13315 | 11.54484 | 3154 ft | 112 kts | 337° |
| 2026-04-18 12:41 | 48.14016 | 11.53956 | 3147 ft | 113 kts | 329° |
| 2026-04-18 12:41 | 48.14677 | 11.53330 | 3133 ft | 114 kts | 326° |
| 2026-04-18 12:41 | 48.15301 | 11.52594 | 3118 ft | 114 kts | 319° |
| 2026-04-18 12:41 | 48.15926 | 11.51884 | 3094 ft | 112 kts | 330° |
| 2026-04-18 12:42 | 48.16605 | 11.51290 | 3071 ft | 113 kts | 327° |
| 2026-04-18 12:42 | 48.17177 | 11.50485 | 3061 ft | 113 kts | 306° |
| 2026-04-18 12:42 | 48.17714 | 11.49629 | 2951 ft | 118 kts | 321° |
| 2026-04-18 12:42 | 48.18335 | 11.48894 | 2996 ft | 113 kts | 317° |
| 2026-04-18 12:43 | 48.18882 | 11.48027 | 2969 ft | 114 kts | 314° |
| 2026-04-18 12:43 | 48.19527 | 11.47349 | 2945 ft | 113 kts | 340° |
| 2026-04-18 12:43 | 48.20287 | 11.47082 | 2929 ft | 113 kts | 349° |
| 2026-04-18 12:43 | 48.21044 | 11.46769 | 2925 ft | 112 kts | 342° |
| 2026-04-18 12:44 | 48.21750 | 11.46283 | 2922 ft | 113 kts | 332° |
| 2026-04-18 12:44 | 48.22439 | 11.45716 | 2930 ft | 113 kts | 338° |
| 2026-04-18 12:44 | 48.23183 | 11.45327 | 2975 ft | 112 kts | 342° |
| 2026-04-18 12:44 | 48.23915 | 11.44905 | 3002 ft | 114 kts | 339° |
| 2026-04-18 12:45 | 48.24646 | 11.44439 | 2995 ft | 115 kts | 336° |
| 2026-04-18 12:45 | 48.25416 | 11.44102 | 3007 ft | 115 kts | 352° |
| 2026-04-18 12:45 | 48.26221 | 11.43962 | 2974 ft | 115 kts | 354° |
| 2026-04-18 12:45 | 48.26995 | 11.43824 | 3066 ft | 110 kts | 354° |
| 2026-04-18 12:46 | 48.27773 | 11.43654 | 3052 ft | 115 kts | 350° |
| 2026-04-18 12:46 | 48.28547 | 11.43394 | 3083 ft | 114 kts | 350° |
| 2026-04-18 12:46 | 48.29330 | 11.43176 | 3065 ft | 116 kts | 347° |
| 2026-04-18 12:46 | 48.30124 | 11.42968 | 3080 ft | 115 kts | 354° |
| 2026-04-18 12:47 | 48.30928 | 11.42810 | 3046 ft | 118 kts | 354° |
| 2026-04-18 12:47 | 48.31766 | 11.42835 | 2902 ft | 125 kts | 11° |
| 2026-04-18 12:47 | 48.32589 | 11.43096 | 2910 ft | 117 kts | 10° |
| 2026-04-18 12:47 | 48.33376 | 11.43301 | 2936 ft | 112 kts | 10° |
| 2026-04-18 12:48 | 48.34145 | 11.43574 | 2948 ft | 114 kts | 16° |
| 2026-04-18 12:48 | 48.34905 | 11.43955 | 2957 ft | 114 kts | 23° |
| 2026-04-18 12:48 | 48.35636 | 11.44454 | 2943 ft | 115 kts | 26° |
| 2026-04-18 12:48 | 48.36364 | 11.44818 | 3023 ft | 111 kts | 12° |
| 2026-04-18 12:49 | 48.37140 | 11.45021 | 3028 ft | 113 kts | 13° |
| 2026-04-18 12:49 | 48.37895 | 11.45331 | 3022 ft | 114 kts | 17° |
| 2026-04-18 12:49 | 48.38664 | 11.45616 | 3047 ft | 113 kts | 9° |
| 2026-04-18 12:49 | 48.39445 | 11.45756 | 3042 ft | 114 kts | 6° |
| 2026-04-18 12:50 | 48.40223 | 11.45926 | 3045 ft | 114 kts | 16° |
| 2026-04-18 12:50 | 48.40982 | 11.46289 | 3054 ft | 114 kts | 17° |
| 2026-04-18 12:50 | 48.41753 | 11.46507 | 3075 ft | 114 kts | 4° |
| 2026-04-18 12:50 | 48.42540 | 11.46484 | 3083 ft | 113 kts | 1° |
| 2026-04-18 12:51 | 48.43331 | 11.46591 | 3083 ft | 114 kts | 7° |
| 2026-04-18 12:51 | 48.44118 | 11.46662 | 3083 ft | 115 kts | 1° |
| 2026-04-18 12:51 | 48.44907 | 11.46823 | 3080 ft | 115 kts | 21° |
| 2026-04-18 12:51 | 48.45609 | 11.47392 | 3086 ft | 114 kts | 33° |
| 2026-04-18 12:52 | 48.46066 | 11.47774 | 3092 ft | 113 kts | 27° |
| 2026-04-18 12:52 | 48.46770 | 11.48324 | 3087 ft | 114 kts | 34° |
| 2026-04-18 12:52 | 48.47594 | 11.49336 | 3088 ft | 113 kts | 40° |
| 2026-04-18 12:52 | 48.48008 | 11.49820 | 3080 ft | 115 kts | 36° |
| 2026-04-18 12:53 | 48.48699 | 11.50410 | 3100 ft | 114 kts | 25° |
| 2026-04-18 12:53 | 48.49430 | 11.50856 | 3089 ft | 114 kts | 24° |
| 2026-04-18 12:53 | 48.50180 | 11.51262 | 3096 ft | 114 kts | 12° |
| 2026-04-18 12:53 | 48.50967 | 11.51401 | 3081 ft | 115 kts | 4° |
| 2026-04-18 12:54 | 48.51767 | 11.51443 | 3058 ft | 117 kts | 3° |
| 2026-04-18 12:54 | 48.52581 | 11.51459 | 3035 ft | 116 kts | 5° |
| 2026-04-18 12:54 | 48.53383 | 11.51607 | 3017 ft | 116 kts | 6° |
| 2026-04-18 12:54 | 48.54164 | 11.51915 | 2993 ft | 117 kts | 25° |
| 2026-04-18 12:55 | 48.54828 | 11.52597 | 3020 ft | 113 kts | 41° |
| 2026-04-18 12:55 | 48.55461 | 11.53291 | 3018 ft | 115 kts | 30° |
| 2026-04-18 12:55 | 48.56207 | 11.53716 | 3022 ft | 114 kts | 13° |
| 2026-04-18 12:55 | 48.56990 | 11.53897 | 3021 ft | 114 kts | 9° |
| 2026-04-18 12:56 | 48.57777 | 11.54069 | 3025 ft | 114 kts | 8° |
| 2026-04-18 12:56 | 48.58567 | 11.54182 | 3025 ft | 114 kts | 3° |
| 2026-04-18 12:56 | 48.59306 | 11.53841 | 2970 ft | 117 kts | 314° |
| 2026-04-18 12:56 | 48.59746 | 11.52843 | 3003 ft | 113 kts | 302° |
| 2026-04-18 12:57 | 48.60133 | 11.51801 | 3003 ft | 114 kts | 298° |
| 2026-04-18 12:57 | 48.60423 | 11.50709 | 3017 ft | 114 kts | 285° |
| 2026-04-18 12:57 | 48.60581 | 11.49540 | 3024 ft | 114 kts | 274° |
| 2026-04-18 12:57 | 48.60476 | 11.48354 | 2997 ft | 114 kts | 258° |
| 2026-04-18 12:58 | 48.60283 | 11.47267 | 3227 ft | 102 kts | 249° |
| 2026-04-18 12:58 | 48.59977 | 11.46278 | 3294 ft | 113 kts | 246° |
| 2026-04-18 12:58 | 48.59625 | 11.45273 | 3530 ft | 102 kts | 242° |
| 2026-04-18 12:58 | 48.59485 | 11.44192 | 3568 ft | 112 kts | 281° |
| 2026-04-18 12:59 | 48.59849 | 11.43188 | 3758 ft | 106 kts | 314° |
| 2026-04-18 12:59 | 48.60433 | 11.42513 | 3897 ft | 108 kts | 328° |
| 2026-04-18 12:59 | 48.61017 | 11.41791 | 4025 ft | 109 kts | 308° |
| 2026-04-18 12:59 | 48.61366 | 11.40707 | 4059 ft | 115 kts | 290° |
| 2026-04-18 13:00 | 48.61563 | 11.39528 | 4090 ft | 122 kts | 284° |
| 2026-04-18 13:00 | 48.61815 | 11.38315 | 4094 ft | 125 kts | 298° |
| 2026-04-18 13:00 | 48.62360 | 11.37286 | 4111 ft | 125 kts | 316° |
| 2026-04-18 13:00 | 48.63002 | 11.36410 | 4169 ft | 124 kts | 318° |
| 2026-04-18 13:01 | 48.63567 | 11.35419 | 4199 ft | 126 kts | 301° |
| 2026-04-18 13:01 | 48.63991 | 11.34271 | 4197 ft | 127 kts | 308° |
| 2026-04-18 13:01 | 48.64593 | 11.33315 | 4251 ft | 124 kts | 317° |
| 2026-04-18 13:01 | 48.65200 | 11.32387 | 4264 ft | 125 kts | 312° |
| 2026-04-18 13:02 | 48.65863 | 11.31523 | 4265 ft | 126 kts | 325° |
| 2026-04-18 13:02 | 48.66595 | 11.30799 | 4266 ft | 128 kts | 328° |
| 2026-04-18 13:02 | 48.67315 | 11.30031 | 4302 ft | 129 kts | 321° |
| 2026-04-18 13:02 | 48.67963 | 11.29091 | 4287 ft | 125 kts | 314° |
| 2026-04-18 13:03 | 48.68568 | 11.28157 | 4177 ft | 125 kts | 315° |
| 2026-04-18 13:03 | 48.69938 | 11.26598 | 4028 ft | 124 kts | 334° |
| 2026-04-18 13:03 | 48.70731 | 11.26103 | 3950 ft | 121 kts | 343° |
| 2026-04-18 13:04 | 48.71528 | 11.25828 | 3934 ft | 114 kts | 348° |
| 2026-04-18 13:04 | 48.72302 | 11.25654 | 3932 ft | 111 kts | 355° |
| 2026-04-18 13:04 | 48.73092 | 11.25576 | 3850 ft | 114 kts | 352° |
| 2026-04-18 13:04 | 48.73822 | 11.25361 | 3910 ft | 106 kts | 349° |
| 2026-04-18 13:05 | 48.74562 | 11.25471 | 3842 ft | 108 kts | 22° |
| 2026-04-18 13:05 | 48.75210 | 11.26015 | 3780 ft | 110 kts | 47° |
| 2026-04-18 13:05 | 48.75752 | 11.26822 | 3783 ft | 111 kts | 48° |
| 2026-04-18 13:05 | 48.76273 | 11.27677 | 3844 ft | 111 kts | 43° |
| 2026-04-18 13:06 | 48.76836 | 11.28530 | 3856 ft | 116 kts | 43° |
| 2026-04-18 13:06 | 48.77528 | 11.29114 | 3909 ft | 115 kts | 15° |
| 2026-04-18 13:06 | 48.78315 | 11.29374 | 3965 ft | 118 kts | 10° |
| 2026-04-18 13:06 | 48.79118 | 11.29531 | 3960 ft | 117 kts | 11° |
| 2026-04-18 13:07 | 48.79860 | 11.30079 | 3940 ft | 120 kts | 41° |
| 2026-04-18 13:07 | 48.80425 | 11.30955 | 3990 ft | 117 kts | 44° |
| 2026-04-18 13:07 | 48.81038 | 11.31793 | 3979 ft | 119 kts | 42° |
| 2026-04-18 13:07 | 48.81689 | 11.32568 | 3990 ft | 117 kts | 34° |
| 2026-04-18 13:08 | 48.82410 | 11.33120 | 3997 ft | 117 kts | 21° |
| 2026-04-18 13:08 | 48.83200 | 11.33419 | 4015 ft | 117 kts | 9° |
| 2026-04-18 13:08 | 48.83985 | 11.33736 | 4010 ft | 118 kts | 20° |
| 2026-04-18 13:08 | 48.84757 | 11.34110 | 4074 ft | 115 kts | 17° |
| 2026-04-18 13:09 | 48.85522 | 11.34439 | 4047 ft | 117 kts | 12° |
| 2026-04-18 13:09 | 48.86317 | 11.34699 | 4066 ft | 117 kts | 11° |
| 2026-04-18 13:09 | 48.87111 | 11.34924 | 4099 ft | 117 kts | 12° |
| 2026-04-18 13:09 | 48.87904 | 11.35176 | 4102 ft | 117 kts | 12° |
| 2026-04-18 13:10 | 48.88708 | 11.35356 | 4117 ft | 116 kts | 7° |
| 2026-04-18 13:10 | 48.89518 | 11.35509 | 4093 ft | 117 kts | 9° |
| 2026-04-18 13:10 | 48.90309 | 11.35697 | 4082 ft | 116 kts | 7° |
| 2026-04-18 13:10 | 48.91121 | 11.35725 | 4045 ft | 118 kts | 357° |
| 2026-04-18 13:11 | 48.91932 | 11.35633 | 4031 ft | 117 kts | 353° |
| 2026-04-18 13:11 | 48.92742 | 11.35445 | 4094 ft | 116 kts | 350° |
| 2026-04-18 13:11 | 48.93554 | 11.35205 | 4110 ft | 116 kts | 352° |
| 2026-04-18 13:11 | 48.94341 | 11.35053 | 4110 ft | 117 kts | 351° |
| 2026-04-18 13:12 | 48.95148 | 11.34850 | 4119 ft | 114 kts | 348° |
| 2026-04-18 13:12 | 48.95933 | 11.34589 | 4142 ft | 120 kts | 349° |
| 2026-04-18 13:12 | 48.96736 | 11.34322 | 4160 ft | 119 kts | 351° |
| 2026-04-18 13:12 | 48.97554 | 11.34394 | 4170 ft | 117 kts | 12° |
| 2026-04-18 13:13 | 48.98353 | 11.34710 | 4160 ft | 119 kts | 12° |
| 2026-04-18 13:13 | 48.99158 | 11.34924 | 4184 ft | 119 kts | 13° |
| 2026-04-18 13:13 | 48.99941 | 11.35197 | 4236 ft | 115 kts | 15° |
| 2026-04-18 13:13 | 49.00661 | 11.35771 | 4105 ft | 122 kts | 50° |
| 2026-04-18 13:14 | 49.01163 | 11.36734 | 4136 ft | 114 kts | 47° |
| 2026-04-18 13:14 | 49.01829 | 11.37441 | 4064 ft | 117 kts | 29° |
| 2026-04-18 13:14 | 49.02597 | 11.37801 | 4044 ft | 117 kts | 19° |
| 2026-04-18 13:14 | 49.03379 | 11.37991 | 3995 ft | 116 kts | 358° |
| 2026-04-18 13:15 | 49.04143 | 11.37622 | 3979 ft | 113 kts | 338° |
| 2026-04-18 13:15 | 49.04833 | 11.37075 | 3959 ft | 113 kts | 336° |
| 2026-04-18 13:15 | 49.05580 | 11.36669 | 3903 ft | 117 kts | 1° |
| 2026-04-18 13:15 | 49.06379 | 11.36562 | 3906 ft | 113 kts | 352° |
| 2026-04-18 13:16 | 49.07147 | 11.36292 | 3925 ft | 114 kts | 346° |
| 2026-04-18 13:16 | 49.07855 | 11.35801 | 3929 ft | 112 kts | 336° |
| 2026-04-18 13:16 | 49.08593 | 11.35326 | 3947 ft | 114 kts | 346° |
| 2026-04-18 13:16 | 49.09362 | 11.35093 | 3978 ft | 112 kts | 355° |
| 2026-04-18 13:17 | 49.10126 | 11.34860 | 3971 ft | 108 kts | 334° |
| 2026-04-18 13:17 | 49.10707 | 11.34117 | 3955 ft | 113 kts | 317° |
| 2026-04-18 13:17 | 49.11292 | 11.33360 | 3997 ft | 112 kts | 335° |
| 2026-04-18 13:17 | 49.12022 | 11.32913 | 3963 ft | 113 kts | 342° |
| 2026-04-18 13:18 | 49.12729 | 11.32402 | 3934 ft | 112 kts | 332° |
| 2026-04-18 13:18 | 49.13334 | 11.31661 | 3890 ft | 113 kts | 321° |
| 2026-04-18 13:18 | 49.13950 | 11.30893 | 3838 ft | 113 kts | 327° |
| 2026-04-18 13:18 | 49.14605 | 11.30237 | 3821 ft | 114 kts | 336° |
| 2026-04-18 13:19 | 49.15304 | 11.29691 | 3872 ft | 111 kts | 328° |
| 2026-04-18 13:19 | 49.15986 | 11.29111 | 3843 ft | 113 kts | 338° |
| 2026-04-18 13:19 | 49.16619 | 11.28433 | 3842 ft | 114 kts | 326° |
| 2026-04-18 13:19 | 49.17299 | 11.27822 | 3893 ft | 112 kts | 333° |
| 2026-04-18 13:20 | 49.17997 | 11.27300 | 3878 ft | 112 kts | 342° |
| 2026-04-18 13:20 | 49.18734 | 11.26890 | 3850 ft | 114 kts | 339° |
| 2026-04-18 13:20 | 49.19377 | 11.26210 | 3824 ft | 114 kts | 316° |
| 2026-04-18 13:20 | 49.19919 | 11.25334 | 3894 ft | 110 kts | 309° |
| 2026-04-18 13:21 | 49.20468 | 11.24480 | 3897 ft | 114 kts | 316° |
| 2026-04-18 13:21 | 49.21094 | 11.23750 | 3922 ft | 113 kts | 328° |
| 2026-04-18 13:21 | 49.21745 | 11.23069 | 3933 ft | 114 kts | 320° |
| 2026-04-18 13:21 | 49.22104 | 11.22536 | 3942 ft | 116 kts | 313° |